Time;durP1;ratioP1;P1;durP2;ratioP2;P2;SDS_P1;SDS_P2;PMS_P1;PMS_P2;Temp;Humidity;BMP_temperature;BMP_pressure;BME280_temperature;BME280_humidity;BME280_pressure;Samples;Min_cycle;Max_cycle;Signal;HPM_P1;HPM_P2
2022/04/07 00:00:10;;;;;;;10.07;2.35;;;20.40;99.90;;;;;;4978625;28;20018;-77
2022/04/07 00:02:37;;;;;;;5.32;1.08;;;20.50;99.90;;;;;;4980352;28;20057;-79
2022/04/07 00:05:05;;;;;;;8.40;1.77;;;20.70;99.90;;;;;;4982408;28;20055;-75
2022/04/07 00:07:32;;;;;;;8.55;1.20;;;21.00;99.90;;;;;;4977728;28;20038;-74
2022/04/07 00:10:00;;;;;;;4.95;1.02;;;20.90;99.90;;;;;;4988519;28;20030;-75
2022/04/07 00:12:27;;;;;;;5.25;0.70;;;20.90;99.90;;;;;;4986227;28;20045;-76
2022/04/07 00:14:55;;;;;;;3.33;0.55;;;21.00;99.90;;;;;;4974220;28;20038;-76
2022/04/07 00:17:23;;;;;;;2.17;0.63;;;20.90;99.90;;;;;;4981481;28;20033;-73
2022/04/07 00:19:51;;;;;;;3.78;0.40;;;20.80;99.90;;;;;;4971159;28;20039;-76
2022/04/07 00:22:19;;;;;;;2.22;0.10;;;20.80;99.90;;;;;;4975641;28;20031;-76
2022/04/07 00:24:46;;;;;;;1.95;0.28;;;20.70;99.90;;;;;;4978960;28;20046;-75
2022/04/07 00:27:13;;;;;;;0.57;0.20;;;20.70;99.90;;;;;;4980915;28;20031;-75
2022/04/07 00:29:44;;;;;;;0.40;0.10;;;20.50;99.90;;;;;;4972135;28;20038;-76
2022/04/07 00:32:12;;;;;;;1.92;0.10;;;20.40;99.90;;;;;;4986947;28;20129;-75
2022/04/07 00:34:46;;;;;;;1.70;0.25;;;20.30;99.90;;;;;;4983751;28;20039;-75
2022/04/07 00:37:14;;;;;;;0.43;0.22;;;20.20;99.90;;;;;;4971536;28;20493;-74
2022/04/07 00:39:42;;;;;;;1.05;0.20;;;20.20;99.90;;;;;;4970904;28;20034;-72
2022/04/07 00:42:09;;;;;;;0.77;0.10;;;20.20;99.90;;;;;;4986588;28;20038;-72
2022/04/07 00:44:36;;;;;;;0.93;0.20;;;20.20;99.90;;;;;;4989449;28;20070;-73
2022/04/07 00:47:04;;;;;;;1.95;0.20;;;20.10;99.90;;;;;;4976911;28;20117;-74
2022/04/07 00:49:31;;;;;;;0.85;0.22;;;20.10;99.90;;;;;;4981196;28;20119;-75
2022/04/07 00:51:59;;;;;;;0.40;0.20;;;20.20;99.90;;;;;;4975425;28;20629;-72
2022/04/07 00:54:26;;;;;;;1.38;0.20;;;20.10;99.90;;;;;;4978796;28;20560;-72
2022/04/07 00:56:56;;;;;;;1.85;0.30;;;20.00;99.90;;;;;;4982930;28;20022;-73
2022/04/07 00:59:24;;;;;;;4.35;0.30;;;20.00;99.90;;;;;;4969215;28;20062;-73
2022/04/07 01:01:51;;;;;;;5.70;0.57;;;19.80;99.90;;;;;;4983594;28;20090;-75
2022/04/07 01:04:19;;;;;;;1.10;0.30;;;19.50;99.90;;;;;;4976627;28;20133;-73
2022/04/07 01:06:49;;;;;;;1.13;0.30;;;19.40;99.90;;;;;;4974923;28;20027;-74
2022/04/07 01:09:23;;;;;;;2.38;0.25;;;19.20;99.90;;;;;;4974825;28;20044;-74
2022/04/07 01:11:52;;;;;;;3.55;0.30;;;19.10;99.90;;;;;;4981868;28;20134;-74
2022/04/07 01:14:19;;;;;;;2.50;0.32;;;19.10;99.90;;;;;;4975834;28;20031;-73
2022/04/07 01:16:47;;;;;;;2.92;0.50;;;19.20;99.90;;;;;;4985521;28;20140;-75
2022/04/07 01:19:14;;;;;;;5.50;0.80;;;19.30;99.90;;;;;;4975506;28;20351;-75
2022/04/07 01:21:42;;;;;;;2.72;0.55;;;19.30;99.90;;;;;;4984075;28;20299;-74
2022/04/07 01:24:12;;;;;;;2.58;0.70;;;19.30;99.90;;;;;;4983118;28;20039;-76
2022/04/07 01:26:42;;;;;;;3.38;0.70;;;19.30;99.90;;;;;;4978346;28;20381;-74
2022/04/07 01:29:16;;;;;;;2.90;0.38;;;19.30;99.90;;;;;;4988015;28;20124;-75
2022/04/07 01:31:44;;;;;;;2.08;0.45;;;19.30;99.90;;;;;;4986915;28;20034;-73
2022/04/07 01:34:16;;;;;;;3.17;0.50;;;19.30;99.90;;;;;;4979732;28;20120;-75
2022/04/07 01:36:48;;;;;;;1.30;0.75;;;19.30;99.90;;;;;;4987726;28;20018;-73
2022/04/07 01:39:21;;;;;;;2.55;0.40;;;19.40;99.90;;;;;;4974891;28;20035;-72
2022/04/07 01:41:50;;;;;;;5.40;0.93;;;19.10;99.90;;;;;;4971380;28;20046;-75
2022/04/07 01:44:19;;;;;;;4.03;0.55;;;19.00;99.90;;;;;;4976112;28;20047;-74
2022/04/07 01:46:48;;;;;;;5.22;0.50;;;18.80;99.90;;;;;;4973305;28;20461;-75
2022/04/07 01:49:16;;;;;;;4.13;0.75;;;18.70;99.90;;;;;;4975758;28;20062;-75
2022/04/07 01:51:45;;;;;;;4.38;0.85;;;18.80;99.90;;;;;;4975103;28;20030;-75
2022/04/07 01:54:13;;;;;;;4.18;0.70;;;18.80;99.90;;;;;;4972939;28;20027;-74
2022/04/07 01:56:42;;;;;;;5.75;0.60;;;18.80;99.90;;;;;;4971348;28;20038;-73
2022/04/07 01:59:10;;;;;;;11.82;1.45;;;18.90;99.90;;;;;;4975977;28;20035;-76
2022/04/07 02:01:38;;;;;;;7.13;0.82;;;18.90;99.90;;;;;;4971486;28;20027;-74
2022/04/07 02:04:05;;;;;;;4.20;0.75;;;18.80;99.90;;;;;;4976027;28;20081;-74
2022/04/07 02:06:33;;;;;;;3.97;0.60;;;18.80;99.90;;;;;;4972324;28;20477;-74
2022/04/07 02:09:02;;;;;;;5.07;0.68;;;18.70;99.90;;;;;;4971948;28;20118;-73
2022/04/07 02:11:31;;;;;;;5.82;0.63;;;18.70;99.90;;;;;;4975918;28;20093;-74
2022/04/07 02:13:59;;;;;;;4.32;0.50;;;18.60;99.90;;;;;;4982420;28;20464;-74
2022/04/07 02:16:27;;;;;;;4.95;1.38;;;18.60;99.90;;;;;;4980954;28;20496;-74
2022/04/07 02:18:55;;;;;;;7.10;0.95;;;18.60;99.90;;;;;;4984056;28;20408;-74
2022/04/07 02:21:22;;;;;;;6.55;1.50;;;18.70;99.90;;;;;;4981630;28;20473;-73
2022/04/07 02:23:51;;;;;;;7.25;0.95;;;18.70;99.90;;;;;;4985856;28;20088;-75
2022/04/07 02:26:19;;;;;;;12.38;1.33;;;18.70;99.90;;;;;;4987879;28;20030;-75
2022/04/07 02:28:47;;;;;;;10.27;1.48;;;18.70;99.90;;;;;;4980950;28;20595;-74
2022/04/07 02:31:19;;;;;;;14.30;2.45;;;18.70;99.90;;;;;;4973554;28;20129;-74
2022/04/07 02:33:46;;;;;;;8.00;0.80;;;18.70;99.90;;;;;;4974906;28;20050;-74
2022/04/07 02:36:17;;;;;;;10.43;1.40;;;18.80;99.90;;;;;;4978601;28;20041;-74
2022/04/07 02:38:48;;;;;;;4.90;1.63;;;18.90;99.90;;;;;;4984740;28;20384;-73
2022/04/07 02:41:16;;;;;;;6.28;1.13;;;18.90;99.90;;;;;;4988993;28;20520;-73
2022/04/07 02:43:45;;;;;;;17.10;3.38;;;18.90;99.90;;;;;;4979359;28;20038;-71
2022/04/07 02:46:13;;;;;;;5.78;0.85;;;18.90;99.90;;;;;;4980963;28;20034;-72
2022/04/07 02:48:40;;;;;;;9.35;2.38;;;18.90;99.90;;;;;;4981649;28;20102;-71
2022/04/07 02:51:08;;;;;;;7.72;0.90;;;18.90;99.90;;;;;;4972556;28;20031;-72
2022/04/07 02:53:35;;;;;;;5.40;0.88;;;18.80;99.90;;;;;;4977423;28;20030;-72
2022/04/07 02:56:02;;;;;;;6.72;1.40;;;18.80;99.90;;;;;;4979091;28;20050;-74
2022/04/07 02:58:30;;;;;;;15.93;2.25;;;18.80;99.90;;;;;;4978287;28;20034;-73
2022/04/07 03:00:58;;;;;;;2.85;1.38;;;18.90;99.90;;;;;;4977482;28;20149;-73
2022/04/07 03:03:25;;;;;;;7.32;0.93;;;18.90;99.90;;;;;;4976537;28;20172;-73
2022/04/07 03:05:53;;;;;;;6.35;1.10;;;18.90;99.90;;;;;;4976029;28;20487;-73
2022/04/07 03:08:21;;;;;;;10.55;2.83;;;18.90;99.90;;;;;;4978001;28;20030;-73
2022/04/07 03:10:48;;;;;;;8.10;0.93;;;18.90;99.90;;;;;;4984267;28;20023;-73
2022/04/07 03:13:15;;;;;;;10.38;1.90;;;18.90;99.90;;;;;;4988792;28;20060;-72
2022/04/07 03:15:43;;;;;;;7.05;0.95;;;18.90;99.90;;;;;;4973543;28;20038;-73
2022/04/07 03:18:11;;;;;;;3.83;0.70;;;18.90;99.90;;;;;;4983844;28;20031;-72
2022/04/07 03:20:38;;;;;;;4.25;0.90;;;18.90;99.90;;;;;;4986776;28;20026;-74
2022/04/07 03:23:06;;;;;;;9.45;1.88;;;18.90;99.90;;;;;;4974036;28;20608;-72
2022/04/07 03:25:33;;;;;;;11.07;1.35;;;18.90;99.90;;;;;;4975886;28;20062;-72
2022/04/07 03:28:01;;;;;;;7.68;1.25;;;19.00;99.90;;;;;;4983339;28;20511;-73
2022/04/07 03:30:28;;;;;;;9.05;1.58;;;19.10;99.90;;;;;;4979664;28;20037;-74
2022/04/07 03:32:55;;;;;;;6.45;1.42;;;19.10;99.90;;;;;;4986387;28;20137;-73
2022/04/07 03:35:24;;;;;;;6.10;0.80;;;19.10;99.90;;;;;;4976306;28;20022;-72
2022/04/07 03:37:52;;;;;;;2.38;0.88;;;19.10;99.90;;;;;;4988044;28;20030;-73
2022/04/07 03:40:19;;;;;;;8.45;1.15;;;19.10;99.90;;;;;;4976169;28;20031;-72
2022/04/07 03:42:46;;;;;;;3.40;1.45;;;19.00;99.90;;;;;;4978624;28;20118;-72
2022/04/07 03:45:14;;;;;;;5.75;0.75;;;19.00;99.90;;;;;;4978469;28;20430;-73
2022/04/07 03:47:41;;;;;;;5.68;0.85;;;19.10;99.90;;;;;;4985142;28;20108;-73
2022/04/07 03:50:10;;;;;;;9.40;1.10;;;19.10;99.90;;;;;;4986468;28;20093;-73
2022/04/07 03:52:37;;;;;;;4.57;0.65;;;19.20;99.90;;;;;;4972946;28;20125;-74
2022/04/07 03:55:06;;;;;;;6.20;1.13;;;19.20;99.90;;;;;;4971497;28;20389;-73
2022/04/07 03:57:33;;;;;;;5.43;0.70;;;19.10;99.90;;;;;;4980220;28;20027;-74
2022/04/07 04:00:00;;;;;;;6.80;0.63;;;19.10;99.90;;;;;;4984164;28;20030;-74
2022/04/07 04:02:28;;;;;;;4.55;0.85;;;19.10;99.90;;;;;;4986346;28;20038;-73
2022/04/07 04:04:55;;;;;;;7.78;2.13;;;19.10;99.90;;;;;;4982111;28;20033;-73
2022/04/07 04:07:22;;;;;;;8.35;1.45;;;19.10;99.90;;;;;;4988698;28;20169;-73
2022/04/07 04:09:50;;;;;;;4.95;0.90;;;19.10;99.90;;;;;;4991048;28;20026;-72
2022/04/07 04:12:17;;;;;;;9.35;1.25;;;19.00;99.90;;;;;;4980687;28;20034;-72
2022/04/07 04:14:44;;;;;;;5.35;1.52;;;19.10;99.90;;;;;;4977687;28;20057;-72
2022/04/07 04:17:12;;;;;;;6.88;1.23;;;19.10;99.90;;;;;;4987729;28;20102;-73
2022/04/07 04:19:39;;;;;;;5.30;1.25;;;19.10;99.90;;;;;;4975049;28;20030;-73
2022/04/07 04:22:06;;;;;;;8.95;2.03;;;19.20;99.90;;;;;;4976984;28;20030;-73
2022/04/07 04:24:34;;;;;;;7.03;1.88;;;19.20;99.90;;;;;;4981296;28;20073;-73
2022/04/07 04:27:01;;;;;;;7.25;1.10;;;19.20;99.90;;;;;;4973641;28;20058;-73
2022/04/07 04:29:29;;;;;;;8.27;1.45;;;19.20;99.90;;;;;;4979929;28;20121;-72
2022/04/07 04:32:01;;;;;;;8.85;1.40;;;19.30;99.90;;;;;;4971781;28;20046;-73
2022/04/07 04:34:28;;;;;;;3.20;1.05;;;19.30;99.90;;;;;;4978002;28;20397;-73
2022/04/07 04:36:56;;;;;;;8.18;1.55;;;19.30;99.90;;;;;;4976625;28;20045;-74
2022/04/07 04:39:24;;;;;;;6.55;1.83;;;19.40;99.90;;;;;;4982110;28;20392;-73
2022/04/07 04:41:51;;;;;;;6.65;1.05;;;19.40;99.90;;;;;;4978232;28;20023;-74
2022/04/07 04:44:19;;;;;;;11.68;1.83;;;19.50;99.90;;;;;;4985093;28;20057;-71
2022/04/07 04:46:49;;;;;;;5.38;1.38;;;19.50;99.90;;;;;;4975219;28;20031;-73
2022/04/07 04:49:16;;;;;;;7.40;2.13;;;19.60;99.90;;;;;;4983538;28;20572;-72
2022/04/07 04:51:44;;;;;;;7.05;1.52;;;19.60;99.90;;;;;;4982189;28;20109;-73
2022/04/07 04:54:13;;;;;;;6.75;1.02;;;19.70;99.90;;;;;;4984485;28;20033;-72
2022/04/07 04:56:42;;;;;;;8.65;1.83;;;19.70;99.90;;;;;;4976249;28;20449;-72
2022/04/07 04:59:09;;;;;;;6.85;1.27;;;19.60;99.90;;;;;;4982305;28;20031;-73
2022/04/07 05:01:36;;;;;;;7.13;1.70;;;19.60;99.90;;;;;;4980878;28;20474;-72
2022/04/07 05:04:04;;;;;;;6.10;1.27;;;19.60;99.90;;;;;;4979152;28;20432;-73
2022/04/07 05:06:31;;;;;;;7.85;0.90;;;19.50;99.90;;;;;;4982074;28;20121;-73
2022/04/07 05:09:01;;;;;;;3.15;0.60;;;19.50;99.90;;;;;;4978199;28;20037;-73
2022/04/07 05:11:29;;;;;;;8.35;2.35;;;19.40;99.90;;;;;;4984266;28;20025;-73
2022/04/07 05:13:56;;;;;;;5.18;0.95;;;19.40;99.90;;;;;;4975296;28;20027;-72
2022/04/07 05:16:23;;;;;;;6.32;0.70;;;19.40;99.90;;;;;;4983994;28;20026;-73
2022/04/07 05:18:52;;;;;;;7.93;2.00;;;19.40;99.90;;;;;;4976704;28;20466;-73
2022/04/07 05:21:19;;;;;;;10.75;1.83;;;19.30;99.90;;;;;;4983885;28;20105;-73
2022/04/07 05:23:47;;;;;;;6.22;1.52;;;19.30;99.90;;;;;;4984906;28;20038;-74
2022/04/07 05:26:15;;;;;;;8.07;1.27;;;19.30;99.90;;;;;;4980036;28;20015;-74
2022/04/07 05:28:43;;;;;;;13.55;1.30;;;19.30;99.90;;;;;;4978948;28;20031;-74
2022/04/07 05:31:11;;;;;;;14.25;2.03;;;19.40;99.90;;;;;;4983648;28;20018;-74
2022/04/07 05:33:38;;;;;;;8.68;1.58;;;19.40;99.90;;;;;;4974177;28;20528;-73
2022/04/07 05:36:06;;;;;;;7.05;1.95;;;19.40;99.90;;;;;;4986005;28;20018;-73
2022/04/07 05:38:33;;;;;;;5.88;1.30;;;19.40;99.90;;;;;;4974541;28;20034;-72
2022/04/07 05:41:00;;;;;;;6.30;1.75;;;19.40;99.90;;;;;;4973183;28;20030;-72
2022/04/07 05:43:28;;;;;;;6.43;0.80;;;19.40;99.90;;;;;;4985663;28;20081;-72
2022/04/07 05:45:55;;;;;;;6.68;1.08;;;19.40;99.90;;;;;;4978848;28;20432;-73
2022/04/07 05:48:22;;;;;;;10.27;1.98;;;19.40;99.90;;;;;;4986446;28;20034;-73
2022/04/07 05:50:50;;;;;;;8.70;2.10;;;19.30;99.90;;;;;;4994466;28;20038;-73
2022/04/07 05:53:17;;;;;;;7.85;2.10;;;19.30;99.90;;;;;;4985319;28;20860;-75
2022/04/07 05:55:45;;;;;;;9.45;1.10;;;19.40;99.90;;;;;;4985060;28;20057;-72
2022/04/07 05:58:15;;;;;;;7.95;1.83;;;19.30;99.90;;;;;;4983187;28;20402;-73
2022/04/07 06:00:43;;;;;;;9.63;1.85;;;19.30;99.90;;;;;;4983769;28;20026;-73
2022/04/07 06:03:11;;;;;;;7.70;0.98;;;19.30;99.90;;;;;;4983585;28;20046;-74
2022/04/07 06:05:38;;;;;;;9.38;1.58;;;19.20;99.90;;;;;;4974468;28;20031;-74
2022/04/07 06:08:06;;;;;;;6.45;1.38;;;19.20;99.90;;;;;;4977175;28;20075;-72
2022/04/07 06:10:34;;;;;;;6.35;1.63;;;19.10;99.90;;;;;;4983236;28;20536;-74
2022/04/07 06:13:02;;;;;;;15.75;1.90;;;19.00;99.90;;;;;;4980020;28;20081;-72
2022/04/07 06:15:30;;;;;;;13.88;2.53;;;19.00;99.90;;;;;;4979824;28;20027;-74
2022/04/07 06:17:57;;;;;;;10.65;1.30;;;19.00;99.90;;;;;;4983203;28;20493;-74
2022/04/07 06:20:25;;;;;;;6.43;1.45;;;18.90;99.90;;;;;;4980310;28;20042;-74
2022/04/07 06:22:53;;;;;;;5.15;1.17;;;18.90;99.90;;;;;;4982460;28;20027;-74
2022/04/07 06:25:21;;;;;;;15.35;1.90;;;18.80;99.90;;;;;;4975823;28;20125;-75
2022/04/07 06:27:48;;;;;;;8.57;2.42;;;18.80;99.90;;;;;;4978378;28;20477;-75
2022/04/07 06:30:20;;;;;;;14.05;1.95;;;18.80;99.90;;;;;;4976054;28;20034;-76
2022/04/07 06:32:49;;;;;;;9.75;2.85;;;18.80;99.90;;;;;;4981815;28;20070;-74
2022/04/07 06:35:17;;;;;;;9.00;5.32;;;18.70;99.90;;;;;;4987895;28;20078;-72
2022/04/07 06:37:56;;;;;;;20.40;6.60;;;18.60;99.90;;;;;;4981061;28;20085;-73
2022/04/07 06:40:30;;;;;;;12.27;3.17;;;18.60;99.90;;;;;;4974122;28;20385;-75
2022/04/07 06:42:59;;;;;;;9.98;2.35;;;18.50;99.90;;;;;;4972191;28;20023;-74
2022/04/07 06:45:28;;;;;;;10.68;2.90;;;18.40;99.90;;;;;;4983190;28;20030;-73
2022/04/07 06:47:56;;;;;;;12.73;2.10;;;18.40;99.90;;;;;;4983117;28;20034;-72
2022/04/07 06:50:25;;;;;;;13.90;4.13;;;18.40;99.90;;;;;;4979008;28;20093;-73
2022/04/07 06:52:54;;;;;;;8.63;3.10;;;18.40;99.90;;;;;;4975610;28;20039;-74
2022/04/07 06:55:21;;;;;;;11.93;1.88;;;18.40;99.90;;;;;;4976809;28;20034;-74
2022/04/07 06:58:00;;;;;;;8.20;2.10;;;18.40;99.90;;;;;;4977927;28;20240;-73
2022/04/07 07:00:32;;;;;;;8.82;1.95;;;18.30;99.90;;;;;;4975335;28;20034;-74
2022/04/07 07:03:02;;;;;;;9.80;2.17;;;18.30;99.90;;;;;;4971102;28;20042;-73
2022/04/07 07:05:32;;;;;;;8.15;1.50;;;18.30;99.90;;;;;;4984296;28;20153;-74
2022/04/07 07:08:11;;;;;;;10.30;2.05;;;18.20;99.90;;;;;;4987380;28;20030;-73
2022/04/07 07:10:38;;;;;;;7.25;2.33;;;18.20;99.90;;;;;;4978115;28;20018;-73
2022/04/07 07:13:06;;;;;;;10.15;2.83;;;18.10;99.90;;;;;;4971196;28;20081;-74
2022/04/07 07:15:33;;;;;;;12.25;2.72;;;18.00;99.90;;;;;;4971125;28;20034;-74
2022/04/07 07:18:00;;;;;;;14.32;2.70;;;18.00;99.90;;;;;;4966504;28;20034;-75
2022/04/07 07:20:28;;;;;;;9.88;1.52;;;18.00;99.90;;;;;;4977641;28;20041;-73
2022/04/07 07:22:55;;;;;;;15.27;2.15;;;18.00;99.90;;;;;;4976953;28;20027;-73
2022/04/07 07:25:23;;;;;;;11.25;3.08;;;17.90;99.90;;;;;;4969360;28;20055;-73
2022/04/07 07:27:50;;;;;;;10.75;3.28;;;17.90;99.90;;;;;;4976805;28;20039;-73
2022/04/07 07:30:18;;;;;;;10.80;2.65;;;17.90;99.90;;;;;;4964465;28;20496;-72
2022/04/07 07:32:51;;;;;;;12.70;3.00;;;17.90;99.90;;;;;;4968857;28;20105;-73
2022/04/07 07:35:20;;;;;;;14.95;2.90;;;17.90;99.90;;;;;;4969417;28;20034;-73
2022/04/07 07:37:52;;;;;;;16.05;2.03;;;17.90;99.90;;;;;;4979075;28;20037;-73
2022/04/07 07:40:22;;;;;;;11.48;2.67;;;18.00;99.90;;;;;;4975083;28;20397;-73
2022/04/07 07:42:53;;;;;;;12.20;3.05;;;18.00;99.90;;;;;;4974631;28;20060;-73
2022/04/07 07:45:22;;;;;;;11.70;2.00;;;18.00;99.90;;;;;;4969225;28;20030;-73
2022/04/07 07:47:49;;;;;;;16.60;3.47;;;18.00;99.90;;;;;;4969912;28;20034;-73
2022/04/07 07:50:16;;;;;;;19.58;3.33;;;18.00;99.90;;;;;;4969838;28;20110;-72
2022/04/07 07:52:44;;;;;;;8.32;2.55;;;18.00;99.90;;;;;;4983904;28;20039;-73
2022/04/07 07:55:11;;;;;;;14.30;2.95;;;18.10;99.90;;;;;;4966070;28;20061;-73
2022/04/07 07:57:39;;;;;;;12.48;1.80;;;18.10;99.90;;;;;;4976475;28;20031;-73
2022/04/07 08:00:15;;;;;;;20.02;2.30;;;18.10;99.90;;;;;;4980359;28;20156;-72
2022/04/07 08:02:43;;;;;;;15.23;2.50;;;18.10;99.90;;;;;;4970523;28;20031;-72
2022/04/07 08:05:12;;;;;;;15.60;2.17;;;18.10;99.90;;;;;;4985762;28;20045;-73
2022/04/07 08:07:41;;;;;;;16.48;2.88;;;18.20;99.90;;;;;;4974829;28;20104;-75
2022/04/07 08:10:09;;;;;;;8.98;2.28;;;18.10;99.90;;;;;;4972304;28;20469;-75
2022/04/07 08:12:38;;;;;;;12.82;2.58;;;18.10;99.90;;;;;;4978584;28;20030;-73
2022/04/07 08:15:06;;;;;;;13.00;3.03;;;18.10;99.90;;;;;;4972428;28;20023;-74
2022/04/07 08:17:34;;;;;;;15.15;4.53;;;18.10;99.90;;;;;;4976312;28;20101;-76
2022/04/07 08:20:03;;;;;;;8.27;2.35;;;18.10;99.90;;;;;;4977748;28;20022;-75
2022/04/07 08:22:31;;;;;;;9.23;3.05;;;18.10;99.90;;;;;;4974308;28;20030;-75
2022/04/07 08:24:58;;;;;;;11.82;3.08;;;18.10;99.90;;;;;;4972757;28;20039;-74
2022/04/07 08:27:26;;;;;;;8.63;1.70;;;18.00;99.90;;;;;;4984716;28;20473;-74
2022/04/07 08:29:53;;;;;;;11.48;2.50;;;18.10;99.90;;;;;;4974629;28;20052;-75
2022/04/07 08:32:21;;;;;;;10.88;1.60;;;18.00;99.90;;;;;;4988855;28;20022;-75
2022/04/07 08:34:48;;;;;;;6.80;1.40;;;18.10;99.90;;;;;;4983350;28;20406;-71
2022/04/07 08:37:16;;;;;;;13.68;1.73;;;18.00;99.90;;;;;;4985035;28;20046;-73
2022/04/07 08:39:43;;;;;;;7.68;2.22;;;18.10;99.90;;;;;;4986833;28;20038;-74
2022/04/07 08:42:11;;;;;;;9.02;1.48;;;18.00;99.90;;;;;;4972313;28;20057;-74
2022/04/07 08:44:38;;;;;;;12.82;1.55;;;18.10;99.90;;;;;;4970786;28;20074;-74
2022/04/07 08:47:06;;;;;;;11.27;2.35;;;18.10;99.90;;;;;;4974646;28;20062;-74
2022/04/07 08:49:37;;;;;;;6.32;1.20;;;18.10;99.90;;;;;;4978553;28;20050;-74
2022/04/07 08:52:08;;;;;;;7.35;1.33;;;18.10;99.90;;;;;;4978465;28;20500;-73
2022/04/07 08:54:35;;;;;;;15.75;2.88;;;18.10;99.90;;;;;;4987109;28;20393;-74
2022/04/07 08:57:03;;;;;;;8.43;1.60;;;18.10;99.90;;;;;;4976592;28;20085;-74
2022/04/07 08:59:31;;;;;;;5.72;1.23;;;18.10;99.90;;;;;;4979650;28;20031;-74
2022/04/07 09:02:03;;;;;;;6.50;1.90;;;18.10;99.90;;;;;;4984805;28;20045;-74
2022/04/07 09:04:36;;;;;;;13.93;2.05;;;18.10;99.90;;;;;;4983396;28;20035;-74
2022/04/07 09:07:09;;;;;;;8.45;1.30;;;18.10;99.90;;;;;;4972488;28;20045;-74
2022/04/07 09:09:36;;;;;;;9.63;1.77;;;18.10;99.90;;;;;;4978722;28;20062;-73
2022/04/07 09:12:05;;;;;;;2.88;1.00;;;18.10;99.90;;;;;;4974464;28;20031;-72
2022/04/07 09:14:38;;;;;;;10.52;2.42;;;18.10;99.90;;;;;;4986934;28;20094;-73
2022/04/07 09:17:06;;;;;;;5.95;1.98;;;18.10;99.90;;;;;;4983700;28;20041;-73
2022/04/07 09:19:37;;;;;;;11.50;2.30;;;18.20;99.90;;;;;;4972664;28;20034;-73
2022/04/07 09:22:14;;;;;;;10.38;2.17;;;18.20;99.90;;;;;;4973037;28;20920;-73
2022/04/07 09:24:42;;;;;;;5.43;1.88;;;18.20;99.90;;;;;;4976712;28;20039;-73
2022/04/07 09:27:11;;;;;;;11.75;2.05;;;18.10;99.90;;;;;;4987746;28;20029;-73
2022/04/07 09:29:43;;;;;;;10.10;1.70;;;18.10;99.90;;;;;;4974816;28;20035;-72
2022/04/07 09:32:19;;;;;;;10.23;3.28;;;18.10;99.90;;;;;;4990783;28;20029;-73
2022/04/07 09:34:51;;;;;;;;;;;18.10;99.90;;;;;;4994045;28;20038;-73
2022/04/07 09:37:22;;;;;;;12.10;2.45;;;18.10;99.90;;;;;;4986687;28;19918;-73
2022/04/07 09:39:51;;;;;;;4.97;1.63;;;18.10;99.90;;;;;;4984794;28;20035;-74
2022/04/07 09:42:25;;;;;;;15.68;2.42;;;18.00;99.90;;;;;;4990575;28;20457;-73
2022/04/07 09:44:59;;;;;;;10.73;1.73;;;18.10;99.90;;;;;;4976076;28;20043;-73
2022/04/07 09:47:45;;;;;;;6.85;2.08;;;18.10;99.90;;;;;;4982024;28;20397;-74
2022/04/07 09:50:24;;;;;;;11.55;2.92;;;18.10;99.90;;;;;;4973289;28;20066;-74
2022/04/07 09:53:04;;;;;;;6.50;2.28;;;18.10;99.90;;;;;;4984542;28;20030;-73
2022/04/07 09:55:40;;;;;;;13.43;3.38;;;18.00;99.90;;;;;;4977036;28;20019;-73
2022/04/07 09:58:08;;;;;;;;;;;18.10;99.90;;;;;;4985177;28;20026;-73
2022/04/07 10:00:37;;;;;;;12.45;2.35;;;18.00;99.90;;;;;;4976348;28;19909;-74
2022/04/07 10:03:04;;;;;;;7.82;2.25;;;18.10;99.90;;;;;;4990967;28;20046;-74
2022/04/07 10:05:32;;;;;;;11.93;1.92;;;18.10;99.90;;;;;;4983646;28;20038;-74
2022/04/07 10:08:00;;;;;;;9.93;1.95;;;18.10;99.90;;;;;;4971105;28;20496;-73
2022/04/07 10:10:28;;;;;;;12.23;1.63;;;18.20;99.90;;;;;;4977498;28;20168;-73
2022/04/07 10:13:01;;;;;;;12.07;1.83;;;18.20;99.90;;;;;;4980054;28;20029;-74
2022/04/07 10:15:28;;;;;;;9.40;2.35;;;18.20;99.90;;;;;;4976755;28;20058;-73
2022/04/07 10:18:01;;;;;;;9.82;2.95;;;18.20;99.90;;;;;;4978175;28;20482;-73
2022/04/07 10:20:37;;;;;;;17.40;3.70;;;18.20;99.90;;;;;;4979103;28;20038;-73
2022/04/07 10:23:10;;;;;;;;;;;18.20;99.90;;;;;;4974490;28;20042;-74
2022/04/07 10:25:43;;;;;;;9.50;2.47;;;18.20;99.90;;;;;;4982134;28;19910;-74
2022/04/07 10:28:11;;;;;;;10.07;2.30;;;18.20;99.90;;;;;;4978194;28;20065;-73
2022/04/07 10:30:53;;;;;;;14.27;2.78;;;18.30;99.90;;;;;;4973925;28;20061;-74
2022/04/07 10:33:35;;;;;;;15.55;3.13;;;18.30;99.90;;;;;;4971516;28;20478;-74
2022/04/07 10:36:09;;;;;;;11.65;2.70;;;18.30;99.90;;;;;;4979507;28;20061;-74
2022/04/07 10:38:41;;;;;;;11.60;2.08;;;18.30;99.90;;;;;;4972934;28;20454;-73
2022/04/07 10:41:09;;;;;;;13.68;2.33;;;18.30;99.90;;;;;;4982472;28;20026;-72
2022/04/07 10:43:39;;;;;;;11.73;2.15;;;18.30;99.90;;;;;;4979724;28;20130;-73
2022/04/07 10:46:13;;;;;;;11.45;2.10;;;18.30;99.90;;;;;;4974002;28;20023;-72
2022/04/07 10:49:05;;;;;;;13.40;1.60;;;18.40;99.90;;;;;;4974053;28;20022;-74
2022/04/07 10:51:46;;;;;;;8.18;1.30;;;18.40;99.90;;;;;;4973523;28;20062;-77
2022/04/07 10:54:14;;;;;;;7.80;1.92;;;18.40;99.90;;;;;;4977735;28;20026;-73
2022/04/07 10:56:48;;;;;;;12.13;2.17;;;18.30;99.90;;;;;;4979955;28;20043;-74
2022/04/07 10:59:21;;;;;;;9.20;1.67;;;18.30;99.90;;;;;;4971330;28;20121;-73
2022/04/07 11:02:12;;;;;;;6.30;1.92;;;18.30;99.90;;;;;;4979632;28;20049;-73
2022/04/07 11:05:04;;;;;;;14.75;1.77;;;18.30;99.90;;;;;;4981496;28;20042;-73
2022/04/07 11:07:52;;;;;;;11.77;2.38;;;18.30;99.90;;;;;;4972594;28;20023;-74
2022/04/07 11:10:48;;;;;;;5.70;1.23;;;18.30;99.90;;;;;;4984801;28;20030;-74
2022/04/07 11:13:15;;;;;;;14.38;3.33;;;18.30;99.90;;;;;;4984190;28;20043;-74
2022/04/07 11:15:50;;;;;;;4.88;1.67;;;18.30;99.90;;;;;;4978973;28;20393;-74
2022/04/07 11:18:30;;;;;;;10.83;1.83;;;18.30;99.90;;;;;;4981504;28;20030;-74
2022/04/07 11:21:16;;;;;;;7.65;1.40;;;18.30;99.90;;;;;;4970948;28;20085;-72
2022/04/07 11:23:53;;;;;;;14.43;1.42;;;18.30;99.90;;;;;;4979294;28;20489;-73
2022/04/07 11:26:26;;;;;;;10.70;1.95;;;18.30;99.90;;;;;;4981107;28;20026;-73
2022/04/07 11:29:03;;;;;;;5.28;2.55;;;18.30;99.90;;;;;;4979347;28;20729;-72
2022/04/07 11:31:43;;;;;;;8.05;2.08;;;18.20;99.90;;;;;;4972837;28;20054;-72
2022/04/07 11:34:41;;;;;;;9.32;1.70;;;18.30;99.90;;;;;;4975839;28;20482;-73
2022/04/07 11:37:10;;;;;;;8.85;1.25;;;18.20;99.90;;;;;;4975384;28;20443;-73
2022/04/07 11:39:51;;;;;;;7.25;1.45;;;18.30;99.90;;;;;;4972583;28;20632;-74
2022/04/07 11:42:21;;;;;;;7.30;1.70;;;18.30;99.90;;;;;;4972806;28;20053;-75
2022/04/07 11:44:56;;;;;;;21.88;2.95;;;18.30;99.90;;;;;;4972300;28;20089;-73
2022/04/07 11:47:25;;;;;;;7.77;1.40;;;18.30;99.90;;;;;;4978738;28;20034;-73
2022/04/07 11:49:53;;;;;;;13.65;2.45;;;18.30;99.90;;;;;;4984236;28;20038;-76
2022/04/07 11:52:29;;;;;;;9.43;2.85;;;18.30;99.90;;;;;;4977795;28;20022;-74
2022/04/07 11:54:58;;;;;;;11.05;1.70;;;18.30;99.90;;;;;;4971447;28;20030;-73
2022/04/07 11:57:27;;;;;;;6.88;1.63;;;18.30;99.90;;;;;;4977590;28;20038;-74
2022/04/07 12:00:04;;;;;;;8.00;1.70;;;18.30;99.90;;;;;;4978014;28;20472;-74
2022/04/07 12:02:31;;;;;;;8.63;1.33;;;18.30;99.90;;;;;;4975254;28;20436;-74
2022/04/07 12:05:05;;;;;;;7.32;1.98;;;18.30;99.90;;;;;;4980372;28;20129;-74
2022/04/07 12:07:32;;;;;;;13.35;2.63;;;18.40;99.90;;;;;;4977845;28;20033;-74
2022/04/07 12:10:11;;;;;;;12.18;1.52;;;18.40;99.90;;;;;;4976037;28;20037;-75
2022/04/07 12:12:39;;;;;;;6.57;1.15;;;18.30;99.90;;;;;;4982783;28;20026;-75
2022/04/07 12:15:08;;;;;;;7.75;1.83;;;18.40;99.90;;;;;;4978565;28;20827;-74
2022/04/07 12:17:35;;;;;;;6.07;1.48;;;18.40;99.90;;;;;;4981001;28;20496;-73
2022/04/07 12:20:04;;;;;;;8.93;1.90;;;18.40;99.90;;;;;;4970301;28;20035;-72
2022/04/07 12:22:32;;;;;;;9.25;2.13;;;18.40;99.90;;;;;;4980005;28;20077;-73
2022/04/07 12:25:03;;;;;;;11.85;1.70;;;18.40;99.90;;;;;;4977149;28;20038;-75
2022/04/07 12:27:33;;;;;;;9.85;2.08;;;18.40;99.90;;;;;;4970320;28;20037;-74
2022/04/07 12:30:01;;;;;;;13.57;2.10;;;18.40;99.90;;;;;;4998713;28;20036;-74
2022/04/07 12:32:45;;;;;;;6.50;2.05;;;18.40;99.90;;;;;;4909464;28;2823119;-72
2022/04/07 12:35:13;;;;;;;18.10;2.58;;;18.40;99.90;;;;;;4990958;28;20568;-75
2022/04/07 12:37:43;;;;;;;13.48;2.22;;;18.40;99.90;;;;;;4975440;28;20030;-73
2022/04/07 12:40:17;;;;;;;9.77;1.23;;;18.40;99.90;;;;;;4970737;28;20035;-74
2022/04/07 12:43:01;;;;;;;9.07;1.20;;;18.40;99.90;;;;;;4972084;28;20022;-73
2022/04/07 12:45:30;;;;;;;10.40;1.83;;;18.40;99.90;;;;;;4975553;28;20053;-74
2022/04/07 12:48:08;;;;;;;7.82;1.27;;;18.40;99.90;;;;;;4971911;28;20515;-73
2022/04/07 12:50:35;;;;;;;8.30;1.52;;;18.50;99.90;;;;;;4970936;28;20042;-73
2022/04/07 12:53:03;;;;;;;9.60;1.35;;;18.40;99.90;;;;;;4970491;28;20050;-73
2022/04/07 12:55:38;;;;;;;5.03;1.70;;;18.40;99.90;;;;;;4970163;28;20481;-74